Time;durP1;ratioP1;P1;durP2;ratioP2;P2;SDS_P1;SDS_P2;PMS_P1;PMS_P2;Temp;Humidity;BMP_temperature;BMP_pressure;BME280_temperature;BME280_humidity;BME280_pressure;Samples;Min_cycle;Max_cycle;Signal;HPM_P1;HPM_P2
2023/12/30 00:00:48;;;;;;;7.38;1.00;;;;;;;-146.27;71.83;33029.47;5061856;28;20027;-72
2023/12/30 00:03:13;;;;;;;16.58;1.33;;;;;;;-146.27;72.09;33043.38;5066835;28;21157;-72
2023/12/30 00:05:39;;;;;;;17.45;1.55;;;;;;;-146.27;71.84;33116.78;5066471;28;20450;-70
2023/12/30 00:08:04;;;;;;;8.00;1.30;;;;;;;-146.27;71.99;33104.88;5056086;28;20048;-71
2023/12/30 00:10:30;;;;;;;11.50;1.40;;;;;;;-146.27;72.00;33067.19;5068129;28;20060;-71
2023/12/30 00:12:56;;;;;;;6.82;1.13;;;;;;;-146.27;71.80;33152.50;5067125;28;20036;-72
2023/12/30 00:15:21;;;;;;;9.20;1.33;;;;;;;-146.27;71.50;33182.25;5064630;28;20472;-72
2023/12/30 00:17:47;;;;;;;8.15;1.20;;;;;;;-146.27;71.11;33112.81;5068355;28;20387;-71
2023/12/30 00:20:12;;;;;;;7.53;1.00;;;;;;;-146.27;70.97;33089.00;5070372;28;20028;-73
2023/12/30 00:22:38;;;;;;;8.85;1.27;;;;;;;-146.27;71.27;33132.66;5068930;28;20048;-72
2023/12/30 00:25:04;;;;;;;16.23;1.63;;;;;;;-146.27;70.67;33132.66;5071034;28;20020;-72
2023/12/30 00:27:29;;;;;;;4.63;1.13;;;;;;;-146.27;70.04;33128.69;5068481;28;20092;-72
2023/12/30 00:29:55;;;;;;;6.40;1.58;;;;;;;-146.27;70.04;33114.78;5071401;28;20480;-72
2023/12/30 00:32:20;;;;;;;6.40;1.00;;;;;;;-146.27;70.14;33180.28;5071206;28;20024;-72
2023/12/30 00:34:45;;;;;;;10.65;1.45;;;;;;;-146.27;69.73;33130.66;5069358;28;20040;-72
2023/12/30 00:37:13;;;;;;;8.80;1.00;;;;;;;-146.27;70.02;33140.59;5066028;28;20059;-72
2023/12/30 00:39:41;;;;;;;6.45;0.80;;;;;;;-146.27;70.43;33100.91;5065112;28;20332;-72
2023/12/30 00:42:07;;;;;;;14.10;1.20;;;;;;;-146.27;70.28;33096.94;5078027;28;20017;-72
2023/12/30 00:44:32;;;;;;;8.60;1.35;;;;;;;-146.27;70.92;33152.50;5065041;28;20043;-72
2023/12/30 00:46:58;;;;;;;10.70;1.38;;;;;;;-146.27;70.69;33152.50;5071628;28;20111;-72
2023/12/30 00:49:23;;;;;;;6.75;1.25;;;;;;;-146.27;70.52;33089.00;5067288;28;20024;-73
2023/12/30 00:51:48;;;;;;;13.13;1.73;;;;;;;-146.27;70.92;33174.31;5070363;28;20024;-72
2023/12/30 00:54:14;;;;;;;13.18;1.65;;;;;;;-146.27;70.75;33132.66;5070747;28;20036;-72
2023/12/30 00:56:39;;;;;;;10.23;1.67;;;;;;;-146.27;70.19;33089.00;5081738;28;20070;-72
2023/12/30 00:59:05;;;;;;;5.68;1.25;;;;;;;-146.27;69.68;33094.97;5060477;28;20056;-72
2023/12/30 01:01:31;;;;;;;11.00;1.33;;;;;;;-146.27;69.99;33104.88;5066754;28;20086;-72
2023/12/30 01:03:57;;;;;;;11.70;1.52;;;;;;;-146.27;69.83;33162.41;5070459;28;20021;-72
2023/12/30 01:06:22;;;;;;;8.30;1.45;;;;;;;-146.27;70.04;33148.53;5070751;28;20556;-72
2023/12/30 01:08:47;;;;;;;10.75;1.65;;;;;;;-146.27;69.82;33154.47;5068119;28;20392;-73
2023/12/30 01:11:13;;;;;;;7.43;1.60;;;;;;;-146.27;69.54;33102.88;5074884;28;20031;-72
2023/12/30 01:13:38;;;;;;;5.30;1.20;;;;;;;-146.27;69.79;33075.13;5076431;28;20031;-72
2023/12/30 01:16:05;;;;;;;5.80;1.02;;;;;;;-146.27;69.90;33025.50;5064518;28;20060;-72
2023/12/30 01:18:31;;;;;;;13.70;1.67;;;;;;;-146.27;70.59;33124.72;5070851;28;20043;-72
2023/12/30 01:20:56;;;;;;;7.93;1.25;;;;;;;-146.27;71.04;33192.16;5066943;28;20312;-72
2023/12/30 01:23:21;;;;;;;12.15;1.40;;;;;;;-146.27;70.35;33100.91;5074339;28;20021;-72
2023/12/30 01:25:47;;;;;;;9.02;1.13;;;;;;;-146.27;70.15;33112.81;5061928;28;20021;-71
2023/12/30 01:28:12;;;;;;;13.43;1.23;;;;;;;-146.27;70.73;33110.81;5068732;28;20044;-71
2023/12/30 01:30:38;;;;;;;14.75;1.40;;;;;;;-146.27;70.72;33152.50;5059464;28;20032;-71
2023/12/30 01:33:04;;;;;;;9.23;1.52;;;;;;;-146.27;71.00;33118.75;5071445;28;20029;-72
2023/12/30 01:35:29;;;;;;;10.25;1.50;;;;;;;-146.27;70.98;33150.50;5075850;28;20020;-72
2023/12/30 01:37:54;;;;;;;12.63;1.50;;;;;;;-146.27;71.69;33212.00;5069524;28;20026;-72
2023/12/30 01:40:20;;;;;;;6.75;1.00;;;;;;;-146.27;71.35;33180.28;5061886;28;20024;-71
2023/12/30 01:42:45;;;;;;;12.35;1.13;;;;;;;-146.27;70.89;33158.44;5059323;28;20021;-71
2023/12/30 01:45:11;;;;;;;12.13;1.73;;;;;;;-146.27;70.54;33118.75;5066197;28;20031;-71
2023/12/30 01:47:38;;;;;;;6.88;0.82;;;;;;;-146.27;69.89;33065.19;5068232;28;20028;-71
2023/12/30 01:50:05;;;;;;;11.95;1.92;;;;;;;-146.27;70.57;33108.84;5068699;28;20102;-72
2023/12/30 01:52:33;;;;;;;15.23;1.70;;;;;;;-146.27;70.11;33057.25;5053824;28;20029;-72
2023/12/30 01:54:58;;;;;;;6.90;1.10;;;;;;;-146.27;71.03;33204.06;5059155;28;20032;-72
2023/12/30 01:57:24;;;;;;;6.18;0.88;;;;;;;-146.27;70.91;33168.38;5054522;28;20332;-72
2023/12/30 01:59:51;;;;;;;6.00;1.15;;;;;;;-146.27;71.00;33188.19;5063401;28;20031;-73
2023/12/30 02:02:17;;;;;;;7.50;1.80;;;;;;;-146.27;70.79;33184.25;5068658;28;20052;-72
2023/12/30 02:04:43;;;;;;;6.50;1.45;;;;;;;-146.27;71.00;33192.16;5067879;28;20516;-72
2023/12/30 02:07:08;;;;;;;5.40;0.98;;;;;;;-146.27;70.94;33172.34;5060289;28;20112;-72
2023/12/30 02:09:33;;;;;;;15.00;2.53;;;;;;;-146.27;70.66;33176.31;5066503;28;20423;-72
2023/12/30 02:11:59;;;;;;;8.18;1.52;;;;;;;-146.27;70.22;33106.84;5055877;28;21561;-72
2023/12/30 02:14:26;;;;;;;6.45;1.05;;;;;;;-146.27;71.19;33255.66;5065830;28;20029;-72
2023/12/30 02:16:51;;;;;;;7.85;1.00;;;;;;;-146.27;70.62;33156.47;5068103;28;20038;-72
2023/12/30 02:19:17;;;;;;;10.32;1.30;;;;;;;-146.27;69.81;33102.88;5066566;28;20380;-72
2023/12/30 02:21:42;;;;;;;12.57;1.50;;;;;;;-146.27;69.45;33083.06;5059710;28;20021;-72
2023/12/30 02:24:08;;;;;;;8.90;1.33;;;;;;;-146.27;69.43;33116.78;5062561;28;20024;-72
2023/12/30 02:26:33;;;;;;;19.25;1.88;;;;;;;-146.27;69.62;33148.53;5058449;28;20063;-72
2023/12/30 02:28:58;;;;;;;8.38;1.13;;;;;;;-146.27;69.46;33116.78;5062958;28;20017;-72
2023/12/30 02:31:24;;;;;;;10.73;1.50;;;;;;;-146.27;69.12;33130.66;5068948;28;20115;-72
2023/12/30 02:33:49;;;;;;;7.93;2.17;;;;;;;-146.27;69.47;33144.56;5061336;28;20024;-71
2023/12/30 02:36:14;;;;;;;8.45;0.88;;;;;;;-146.27;68.96;33104.88;5053132;28;20725;-71
2023/12/30 02:38:40;;;;;;;13.32;1.15;;;;;;;-146.27;68.83;33100.91;5065070;28;20523;-71
2023/12/30 02:41:05;;;;;;;13.20;1.23;;;;;;;-146.27;70.05;33176.31;5069093;28;20095;-72
2023/12/30 02:43:38;;;;;;;5.95;1.10;;;;;;;-146.27;69.83;33108.84;5065015;28;20462;-70
2023/12/30 02:46:04;;;;;;;14.77;1.52;;;;;;;-146.27;70.06;33077.09;5062516;28;20492;-71
2023/12/30 02:48:29;;;;;;;5.05;1.20;;;;;;;-146.27;70.39;33184.25;5066026;28;20056;-70
2023/12/30 02:50:54;;;;;;;7.82;1.27;;;;;;;-146.27;70.50;33152.50;5061540;28;20476;-70
2023/12/30 02:53:20;;;;;;;10.60;1.70;;;;;;;-146.27;70.53;33200.09;5068041;28;20472;-70
2023/12/30 02:55:45;;;;;;;9.68;1.35;;;;;;;-146.27;70.19;33118.75;5065708;28;20453;-71
2023/12/30 02:58:10;;;;;;;12.70;0.88;;;;;;;-146.27;69.90;33140.59;5068093;28;20059;-71
2023/12/30 03:00:36;;;;;;;9.30;1.60;;;;;;;-146.27;71.14;33239.78;5064365;28;20115;-71
2023/12/30 03:03:03;;;;;;;13.40;1.60;;;;;;;-146.27;70.65;33146.53;5061172;28;20020;-70
2023/12/30 03:05:28;;;;;;;7.85;1.05;;;;;;;-146.27;70.51;33140.59;5058343;28;20037;-72
2023/12/30 03:07:57;;;;;;;8.73;1.15;;;;;;;-146.27;70.40;33104.88;5067989;28;20043;-71
2023/12/30 03:10:22;;;;;;;8.65;2.15;;;;;;;-146.27;71.00;33172.34;5058601;28;20028;-72
2023/12/30 03:12:48;;;;;;;12.13;1.48;;;;;;;-146.27;71.03;33100.91;5057934;28;20021;-72
2023/12/30 03:15:13;;;;;;;8.40;1.10;;;;;;;-146.27;70.53;33059.25;5065405;28;20090;-73
2023/12/30 03:17:38;;;;;;;15.55;1.23;;;;;;;-146.27;70.26;33033.44;5065303;28;20025;-73
2023/12/30 03:20:09;;;;;;;6.35;2.22;;;;;;;-146.27;72.10;33223.91;5063683;28;20023;-74
2023/12/30 03:22:34;;;;;;;16.00;3.00;;;;;;;-146.27;72.19;33146.53;5069785;28;20026;-73
2023/12/30 03:25:00;;;;;;;14.77;1.60;;;;;;;-146.27;72.33;33227.88;5061433;28;20017;-73
2023/12/30 03:27:25;;;;;;;9.13;1.33;;;;;;;-146.27;73.29;33196.13;5064618;28;20036;-73
2023/12/30 03:29:52;;;;;;;10.73;2.95;;;;;;;-146.27;73.70;33223.91;5063060;28;20059;-73
2023/12/30 03:32:17;;;;;;;12.95;1.67;;;;;;;-146.27;73.23;33140.59;5071477;28;20116;-73
2023/12/30 03:34:42;;;;;;;12.55;1.52;;;;;;;-146.27;72.68;33140.59;5064670;28;20111;-72
2023/12/30 03:37:08;;;;;;;11.27;1.50;;;;;;;-146.27;73.20;33225.91;5066694;28;20056;-73
2023/12/30 03:39:33;;;;;;;15.20;2.03;;;;;;;-146.27;72.71;33150.50;5055058;28;20485;-73
2023/12/30 03:41:58;;;;;;;13.05;1.55;;;;;;;-146.27;72.00;33120.75;5075719;28;20471;-72
2023/12/30 03:44:24;;;;;;;10.13;1.05;;;;;;;-146.27;72.13;33144.56;5063554;28;20131;-72
2023/12/30 03:46:49;;;;;;;11.02;1.45;;;;;;;-146.27;71.99;33160.44;5065728;28;20051;-72
2023/12/30 03:49:14;;;;;;;12.27;1.67;;;;;;;-146.27;71.47;33132.66;5064742;28;20016;-73
2023/12/30 03:51:40;;;;;;;8.65;1.10;;;;;;;-146.27;71.40;33156.47;5072777;28;20105;-72
2023/12/30 03:54:05;;;;;;;13.82;1.48;;;;;;;-146.27;71.74;33164.41;5065997;28;20032;-73
2023/12/30 03:56:31;;;;;;;7.65;1.20;;;;;;;-146.27;71.50;33104.88;5063487;28;20151;-73
2023/12/30 03:58:59;;;;;;;10.55;1.30;;;;;;;-146.27;72.27;33122.72;5053409;28;20029;-73
2023/12/30 04:01:25;;;;;;;18.13;2.25;;;;;;;-146.27;72.47;33140.59;5065307;28;20036;-73
2023/12/30 04:03:51;;;;;;;7.57;1.52;;;;;;;-146.27;72.29;33227.88;5066334;28;20106;-73
2023/12/30 04:06:18;;;;;;;7.72;1.50;;;;;;;-146.27;72.21;33114.78;5058819;28;20036;-72
2023/12/30 04:08:44;;;;;;;10.32;2.40;;;;;;;-146.27;72.35;33219.94;5063364;28;20029;-73
2023/12/30 04:11:09;;;;;;;8.93;1.38;;;;;;;-146.27;71.69;33180.28;5068147;28;20479;-72
2023/12/30 04:13:35;;;;;;;9.73;1.75;;;;;;;-146.27;71.53;33202.09;5076525;28;20559;-73
2023/12/30 04:16:00;;;;;;;8.45;1.42;;;;;;;-146.27;70.93;33172.34;5066153;28;20063;-73
2023/12/30 04:18:26;;;;;;;9.95;1.58;;;;;;;-146.27;70.29;33108.84;5063069;28;20026;-73
2023/12/30 04:20:51;;;;;;;8.48;1.10;;;;;;;-146.27;71.44;33223.91;5061377;28;20122;-73
2023/12/30 04:23:16;;;;;;;14.82;2.17;;;;;;;-146.27;70.75;33122.72;5079906;28;20024;-73
2023/12/30 04:25:42;;;;;;;8.35;1.13;;;;;;;-146.27;71.88;33178.28;5064951;28;20036;-73
2023/12/30 04:28:07;;;;;;;3.20;1.23;;;;;;;-146.27;71.66;33077.09;5066601;28;20021;-72
2023/12/30 04:30:32;;;;;;;6.30;1.02;;;;;;;-146.27;72.14;33138.59;5063140;28;20032;-73
2023/12/30 04:32:58;;;;;;;11.57;1.63;;;;;;;-146.27;72.57;33192.16;5073620;28;20028;-73
2023/12/30 04:35:23;;;;;;;10.40;1.90;;;;;;;-146.27;72.32;33152.50;5066889;28;20125;-73
2023/12/30 04:37:48;;;;;;;9.88;1.20;;;;;;;-146.27;72.68;33212.00;5067295;28;20025;-73
2023/12/30 04:40:14;;;;;;;11.93;1.98;;;;;;;-146.27;72.61;33227.88;5055419;28;20024;-72
2023/12/30 04:42:39;;;;;;;8.27;2.65;;;;;;;-146.27;71.32;33194.16;5065754;28;20020;-73
2023/12/30 04:45:05;;;;;;;11.32;1.00;;;;;;;-146.27;71.04;33176.31;5054456;28;20027;-73
2023/12/30 04:47:30;;;;;;;5.50;1.08;;;;;;;-146.27;70.06;33152.50;5064885;28;20469;-73
2023/12/30 04:49:56;;;;;;;14.63;1.30;;;;;;;-146.27;70.04;33295.34;5058495;28;20024;-72
2023/12/30 04:52:21;;;;;;;8.15;1.05;;;;;;;-146.27;69.14;33198.13;5059252;28;20033;-72
2023/12/30 04:54:46;;;;;;;8.63;1.02;;;;;;;-146.27;67.79;33069.16;5067167;28;20134;-73
2023/12/30 04:57:12;;;;;;;9.38;1.83;;;;;;;-146.27;67.60;33134.63;5053296;28;20072;-73
2023/12/30 04:59:37;;;;;;;8.13;1.17;;;;;;;-146.27;67.90;33200.09;5068150;28;20478;-73
2023/12/30 05:02:03;;;;;;;6.68;1.15;;;;;;;-146.27;68.02;33263.59;5069436;28;20620;-73
2023/12/30 05:04:28;;;;;;;10.80;1.27;;;;;;;-146.27;68.22;33283.44;5069818;28;20020;-73
2023/12/30 05:06:53;;;;;;;4.70;0.80;;;;;;;-146.27;67.42;33154.47;5065583;28;20041;-73
2023/12/30 05:09:20;;;;;;;5.80;0.95;;;;;;;-146.27;67.63;33188.19;5063105;28;20036;-73
2023/12/30 05:11:47;;;;;;;10.80;1.23;;;;;;;-146.27;67.80;33251.69;5057534;28;20029;-73
2023/12/30 05:14:14;;;;;;;7.38;1.05;;;;;;;-146.27;68.00;33202.09;5068071;28;20105;-74
2023/12/30 05:16:44;;;;;;;4.28;0.73;;;;;;;-146.27;68.80;33208.03;5055829;28;20028;-71
2023/12/30 05:19:09;;;;;;;6.15;1.13;;;;;;;-146.27;68.55;33217.97;5071606;28;20097;-70
2023/12/30 05:21:35;;;;;;;5.50;1.20;;;;;;;-146.27;69.05;33206.06;5065926;28;20033;-73
2023/12/30 05:24:00;;;;;;;12.10;1.73;;;;;;;-146.27;69.07;33204.06;5052911;28;20025;-73
2023/12/30 05:26:25;;;;;;;7.30;0.98;;;;;;;-146.27;69.01;33235.81;5059730;28;20024;-73
2023/12/30 05:28:51;;;;;;;9.85;1.00;;;;;;;-146.27;69.18;33204.06;5071037;28;20052;-73
2023/12/30 05:31:16;;;;;;;7.90;1.45;;;;;;;-146.27;69.24;33241.78;5072521;28;20024;-74
2023/12/30 05:33:42;;;;;;;12.80;1.75;;;;;;;-146.27;69.55;33196.13;5051951;28;20490;-73
2023/12/30 05:36:08;;;;;;;9.52;1.42;;;;;;;-146.27;69.61;33219.94;5071311;28;20494;-73
2023/12/30 05:38:33;;;;;;;7.05;0.80;;;;;;;-146.27;68.48;33188.19;5069336;28;20024;-73
2023/12/30 05:40:58;;;;;;;5.72;1.10;;;;;;;-146.27;68.93;33192.16;5070541;28;20025;-73
2023/12/30 05:43:23;;;;;;;3.10;0.85;;;;;;;-146.27;68.46;33158.44;5070734;28;20036;-73
2023/12/30 05:45:49;;;;;;;6.20;1.50;;;;;;;-146.27;69.63;33269.56;5065454;28;20110;-73
2023/12/30 05:48:14;;;;;;;10.38;1.15;;;;;;;-146.27;69.10;33229.88;5063714;28;20035;-73
2023/12/30 05:50:40;;;;;;;4.38;0.77;;;;;;;-146.27;68.88;33214.00;5060760;28;20036;-72
2023/12/30 05:53:05;;;;;;;16.92;1.23;;;;;;;-146.27;68.65;33176.31;5065464;28;20216;-73
2023/12/30 05:55:30;;;;;;;5.00;0.80;;;;;;;-146.27;68.38;33154.47;5074329;28;20028;-73
2023/12/30 05:57:56;;;;;;;8.57;1.05;;;;;;;-146.27;68.69;33180.28;5061381;28;20109;-73
2023/12/30 06:00:21;;;;;;;10.98;1.50;;;;;;;-146.27;68.86;33223.91;5061825;28;20166;-73
2023/12/30 06:02:48;;;;;;;11.88;1.73;;;;;;;-146.27;68.30;33172.34;5067278;28;20025;-73
2023/12/30 06:05:14;;;;;;;8.75;1.20;;;;;;;-146.27;68.38;33138.59;5067336;28;20123;-73
2023/12/30 06:07:39;;;;;;;9.85;1.42;;;;;;;-146.27;68.73;33168.38;5066549;28;20154;-73
2023/12/30 06:10:08;;;;;;;7.75;1.30;;;;;;;-146.27;69.57;33233.84;5062280;28;20033;-73
2023/12/30 06:12:33;;;;;;;11.10;1.20;;;;;;;-146.27;69.13;33192.16;5064689;28;20353;-73
2023/12/30 06:14:59;;;;;;;8.20;1.10;;;;;;;-146.27;68.98;33172.34;5062349;28;20032;-73
2023/12/30 06:17:24;;;;;;;15.93;1.00;;;;;;;-146.27;69.35;33112.81;5054324;28;20118;-73
2023/12/30 06:19:50;;;;;;;7.80;1.15;;;;;;;-146.27;69.87;33204.06;5067544;28;20533;-73
2023/12/30 06:22:15;;;;;;;12.35;1.55;;;;;;;-146.27;69.38;33198.13;5064931;28;20028;-73
2023/12/30 06:24:40;;;;;;;19.80;2.25;;;;;;;-146.27;70.37;33223.91;5057439;28;20112;-73
2023/12/30 06:27:06;;;;;;;12.32;0.98;;;;;;;-146.27;70.81;33267.56;5064893;28;20070;-73
2023/12/30 06:29:31;;;;;;;7.85;1.00;;;;;;;-146.27;69.63;33152.50;5071977;28;20020;-73
2023/12/30 06:31:56;;;;;;;11.48;1.58;;;;;;;-146.27;69.69;33112.81;5067025;28;20103;-72
2023/12/30 06:34:23;;;;;;;10.50;1.30;;;;;;;-146.27;69.21;33154.47;5064641;28;20028;-72
2023/12/30 06:36:49;;;;;;;5.93;1.33;;;;;;;-146.27;70.54;33223.91;5065059;28;20032;-72
2023/12/30 06:39:17;;;;;;;13.77;1.77;;;;;;;-146.27;69.68;33096.94;5067291;28;20032;-72
2023/12/30 06:41:42;;;;;;;7.20;1.20;;;;;;;-146.27;69.74;33065.19;5073968;28;20029;-74
2023/12/30 06:44:08;;;;;;;12.85;1.23;;;;;;;-146.27;70.20;33096.94;5058022;28;20038;-74
2023/12/30 06:46:34;;;;;;;10.00;1.23;;;;;;;-146.27;69.71;33061.22;5063520;28;20157;-72
2023/12/30 06:49:00;;;;;;;7.55;1.13;;;;;;;-146.27;69.41;33033.44;5057299;28;20025;-73
2023/12/30 06:51:27;;;;;;;5.70;0.93;;;;;;;-146.27;70.53;33134.63;5066978;28;20020;-73
2023/12/30 06:53:53;;;;;;;3.65;0.60;;;;;;;-146.27;71.29;33089.00;5057299;28;20036;-73
2023/12/30 06:56:18;;;;;;;8.82;1.17;;;;;;;-146.27;70.34;33057.25;5065976;28;20101;-73
2023/12/30 06:58:45;;;;;;;9.85;1.08;;;;;;;-146.27;71.37;33128.69;5065334;28;20032;-73
2023/12/30 07:01:14;;;;;;;14.05;1.45;;;;;;;-146.27;70.78;33055.28;5066143;28;20595;-72
2023/12/30 07:03:40;;;;;;;6.72;0.70;;;;;;;-146.27;71.98;33152.50;5056749;28;20029;-72
2023/12/30 07:06:05;;;;;;;9.02;1.15;;;;;;;-146.27;71.08;33059.25;5063964;28;20451;-74
2023/12/30 07:08:31;;;;;;;7.43;0.85;;;;;;;-146.27;71.45;33073.13;5053855;28;20429;-73
2023/12/30 07:10:56;;;;;;;7.70;0.88;;;;;;;-146.27;72.27;33160.44;5065846;28;20561;-73
2023/12/30 07:13:21;;;;;;;7.68;1.48;;;;;;;-146.27;73.21;33186.22;5066695;28;20095;-73
2023/12/30 07:15:47;;;;;;;10.20;2.80;;;;;;;-146.27;72.15;33096.94;5074652;28;20020;-74
2023/12/30 07:18:13;;;;;;;8.40;1.20;;;;;;;-146.27;72.96;33138.59;5070731;28;20039;-72
2023/12/30 07:20:38;;;;;;;5.45;1.10;;;;;;;-146.27;72.75;33140.59;5073912;28;20067;-73
2023/12/30 07:23:05;;;;;;;8.18;1.80;;;;;;;-146.27;73.25;33152.50;5067930;28;20032;-72
2023/12/30 07:25:31;;;;;;;17.13;1.10;;;;;;;-146.27;73.36;33190.19;5063978;28;20480;-72
2023/12/30 07:27:56;;;;;;;13.15;1.42;;;;;;;-146.27;73.07;33144.56;5066396;28;20039;-72
2023/12/30 07:30:21;;;;;;;8.43;1.25;;;;;;;-146.27;73.51;33120.75;5061401;28;20051;-72
2023/12/30 07:32:47;;;;;;;3.10;0.82;;;;;;;-146.27;74.81;33265.59;5055202;28;20025;-72
2023/12/30 07:35:12;;;;;;;9.25;1.20;;;;;;;-146.27;73.97;33162.41;5071159;28;20056;-72
2023/12/30 07:37:37;;;;;;;13.43;1.48;;;;;;;-146.27;73.95;33164.41;5075800;28;20349;-71
2023/12/30 07:40:03;;;;;;;12.50;2.45;;;;;;;-146.27;73.83;33160.44;5058460;28;20115;-73
2023/12/30 07:42:29;;;;;;;18.00;1.35;;;;;;;-146.27;73.81;33144.56;5065635;28;20388;-72
2023/12/30 07:44:55;;;;;;;11.75;1.50;;;;;;;-146.27;73.96;33162.41;5073365;28;20052;-72
2023/12/30 07:47:20;;;;;;;6.93;1.27;;;;;;;-146.27;74.74;33162.41;5067127;28;20020;-71
2023/12/30 07:49:49;;;;;;;4.30;0.82;;;;;;;-146.27;75.28;33180.28;5057880;28;20029;-72
2023/12/30 07:52:14;;;;;;;7.07;2.15;;;;;;;-146.27;75.47;33196.13;5060340;28;20614;-73
2023/12/30 07:54:39;;;;;;;6.55;0.95;;;;;;;-146.27;77.17;33261.63;5076566;28;20384;-72
2023/12/30 07:57:05;;;;;;;17.15;1.52;;;;;;;-146.27;76.31;33168.38;5062921;28;20144;-72
2023/12/30 07:59:30;;;;;;;19.90;1.63;;;;;;;-146.27;75.49;33124.72;5051929;28;20496;-72
2023/12/30 08:01:56;;;;;;;9.70;1.50;;;;;;;-146.27;75.16;33077.09;5080930;28;20039;-71
2023/12/30 08:04:22;;;;;;;8.13;1.42;;;;;;;-146.27;75.08;33075.13;5068392;28;20103;-73
2023/12/30 08:06:48;;;;;;;10.85;1.40;;;;;;;-146.27;75.34;33096.94;5068841;28;20082;-72
2023/12/30 08:09:14;;;;;;;8.63;1.20;;;;;;;-146.27;75.52;33140.59;5072704;28;20032;-72
2023/12/30 08:11:39;;;;;;;11.05;1.80;;;;;;;-146.27;75.87;33164.41;5067509;28;20388;-72
2023/12/30 08:14:05;;;;;;;7.85;1.40;;;;;;;-146.27;76.14;33148.53;5068411;28;20027;-72
2023/12/30 08:16:30;;;;;;;3.78;0.88;;;;;;;-146.27;76.76;33176.31;5076731;28;20020;-71
2023/12/30 08:18:56;;;;;;;8.68;1.80;;;;;;;-146.27;77.04;33144.56;5063921;28;20068;-73
2023/12/30 08:21:21;;;;;;;11.88;2.22;;;;;;;-146.27;78.19;33227.88;5065058;28;20032;-73
2023/12/30 08:23:47;;;;;;;10.65;1.25;;;;;;;-146.27;78.17;33180.28;5063397;28;20020;-71
2023/12/30 08:26:12;;;;;;;13.60;1.50;;;;;;;-146.27;78.26;33188.19;5063009;28;20055;-72
2023/12/30 08:28:37;;;;;;;23.83;2.15;;;;;;;-146.27;79.61;33243.75;5078749;28;20481;-72
2023/12/30 08:31:03;;;;;;;12.77;1.80;;;;;;;-146.27;80.66;33265.59;5070513;28;20041;-74
2023/12/30 08:33:28;;;;;;;13.40;2.13;;;;;;;-146.27;80.52;33227.88;5068605;28;20020;-74
2023/12/30 08:35:54;;;;;;;12.85;1.55;;;;;;;-146.27;81.19;33253.69;5069450;28;20376;-71
2023/12/30 08:38:19;;;;;;;15.48;1.52;;;;;;;-146.27;80.75;33196.13;5060337;28;20060;-71
2023/12/30 08:40:45;;;;;;;7.93;1.40;;;;;;;-146.27;79.77;33180.28;5065517;28;20141;-74
2023/12/30 08:43:11;;;;;;;16.90;1.90;;;;;;;-146.27;80.81;33210.03;5071987;28;20040;-71
2023/12/30 08:45:37;;;;;;;10.10;1.35;;;;;;;-146.27;81.66;33208.03;5072357;28;20532;-71
2023/12/30 08:48:04;;;;;;;15.88;1.60;;;;;;;-146.27;81.98;33259.63;5068889;28;20467;-71
2023/12/30 08:50:31;;;;;;;13.98;2.40;;;;;;;-146.27;82.33;33188.19;5069362;28;20032;-72
2023/12/30 08:52:56;;;;;;;9.88;1.90;;;;;;;-146.27;81.67;33144.56;5068606;28;20039;-72
2023/12/30 08:55:21;;;;;;;6.57;1.48;;;;;;;-146.27;82.13;33210.03;5074541;28;20028;-71
2023/12/30 08:57:47;;;;;;;12.07;1.52;;;;;;;-146.27;81.74;33160.44;5079847;28;20130;-72
2023/12/30 09:00:13;;;;;;;12.85;1.63;;;;;;;-146.27;83.10;33184.25;5067322;28;20115;-72
2023/12/30 09:02:46;;;;;;;19.08;1.85;;;;;;;-146.27;83.31;33176.31;5067343;28;20020;-72
2023/12/30 09:05:11;;;;;;;10.18;1.50;;;;;;;-146.27;82.72;33180.28;5072123;28;20039;-72
2023/12/30 09:07:36;;;;;;;10.68;1.88;;;;;;;-146.27;82.97;33180.28;5072341;28;20024;-72
2023/12/30 09:10:02;;;;;;;14.65;1.98;;;;;;;-146.27;83.26;33178.28;5071255;28;20037;-71
2023/12/30 09:12:27;;;;;;;12.13;1.90;;;;;;;-146.27;82.92;33124.72;5064965;28;20093;-71
2023/12/30 09:14:53;;;;;;;11.73;1.58;;;;;;;-146.27;82.78;33146.53;5068136;28;20031;-71
2023/12/30 09:17:18;;;;;;;13.80;2.28;;;;;;;-146.27;82.44;33025.50;5072683;28;20025;-72
2023/12/30 09:19:43;;;;;;;17.70;2.17;;;;;;;-146.27;81.53;32991.78;5072114;28;20023;-72
2023/12/30 09:22:10;;;;;;;14.45;2.28;;;;;;;-146.27;82.56;33096.94;5075816;28;20468;-71
2023/12/30 09:24:36;;;;;;;13.63;1.77;;;;;;;-146.27;82.00;33011.63;5066125;28;20024;-72
2023/12/30 09:27:02;;;;;;;13.77;2.47;;;;;;;-146.27;81.54;32956.06;5077376;28;20024;-71
2023/12/30 09:29:27;;;;;;;17.02;2.08;;;;;;;-146.27;81.40;32997.75;5068741;28;20043;-72
2023/12/30 09:31:52;;;;;;;10.35;2.15;;;;;;;-146.27;82.67;33021.53;5072193;28;20519;-71
2023/12/30 09:34:18;;;;;;;15.25;1.67;;;;;;;-146.27;82.47;33029.47;5070557;28;20025;-71
2023/12/30 09:36:43;;;;;;;15.93;1.90;;;;;;;-146.27;82.73;33025.50;5072495;28;20165;-71
2023/12/30 09:39:11;;;;;;;14.32;2.15;;;;;;;-146.27;82.69;33009.66;5070707;28;20357;-71
2023/12/30 09:41:39;;;;;;;8.63;2.08;;;;;;;-146.27;81.55;32926.31;5069021;28;20115;-71
2023/12/30 09:44:06;;;;;;;15.05;2.38;;;;;;;-146.27;80.99;32942.19;5074357;28;20027;-71
2023/12/30 09:46:31;;;;;;;9.43;1.65;;;;;;;-146.27;80.72;32918.38;5071476;28;20499;-76
2023/12/30 09:48:58;;;;;;;7.53;1.80;;;;;;;-146.27;80.54;32910.44;5064654;28;20024;-72
2023/12/30 09:51:26;;;;;;;16.20;2.33;;;;;;;-146.27;82.35;33021.53;5069909;28;20513;-72
2023/12/30 09:53:52;;;;;;;6.15;1.88;;;;;;;-146.27;81.62;32989.81;5071721;28;20461;-73
2023/12/30 09:56:18;;;;;;;8.68;1.90;;;;;;;-146.27;81.11;32930.28;5066768;28;20031;-72
2023/12/30 09:58:45;;;;;;;15.68;3.25;;;;;;;-146.27;82.64;33027.50;5070599;28;20107;-72
2023/12/30 10:01:11;;;;;;;12.13;1.83;;;;;;;-146.27;82.36;33049.31;5070980;28;20036;-73
2023/12/30 10:03:37;;;;;;;23.02;2.83;;;;;;;-146.27;82.65;33029.47;5087621;28;20379;-73
2023/12/30 10:06:04;;;;;;;12.10;2.20;;;;;;;-146.27;81.18;32930.28;5072957;28;20032;-71
2023/12/30 10:08:30;;;;;;;17.02;4.35;;;;;;;-146.27;81.02;32958.06;5070733;28;20032;-71
2023/12/30 10:10:57;;;;;;;10.00;1.65;;;;;;;-146.27;80.45;32894.56;5070671;28;20477;-71
2023/12/30 10:13:25;;;;;;;11.05;1.77;;;;;;;-146.27;81.63;33047.34;5070324;28;20021;-71
2023/12/30 10:15:52;;;;;;;10.95;1.80;;;;;;;-146.27;81.67;32985.84;5070520;28;20107;-72
2023/12/30 10:18:19;;;;;;;15.45;2.60;;;;;;;-146.27;80.96;32985.84;5069706;28;20028;-72
2023/12/30 10:20:46;;;;;;;11.63;1.77;;;;;;;-146.27;80.26;32880.69;5068892;28;20535;-72
2023/12/30 10:23:11;;;;;;;8.55;1.80;;;;;;;-146.27;80.66;32983.84;5071327;28;20024;-72
2023/12/30 10:25:37;;;;;;;25.40;2.65;;;;;;;-146.27;80.26;32843.00;5069851;28;20037;-72
2023/12/30 10:28:03;;;;;;;14.98;3.80;;;;;;;-146.27;80.18;32819.19;5065716;28;20048;-72
2023/12/30 10:30:30;;;;;;;12.57;1.90;;;;;;;-146.27;80.31;32932.28;5085088;28;20020;-72
2023/12/30 10:33:12;;;;;;;15.15;2.28;;;;;;;-146.27;81.51;32938.22;5071307;28;20443;-72
2023/12/30 10:35:42;;;;;;;11.77;1.92;;;;;;;-146.27;80.59;32926.31;5064920;28;20032;-73
2023/12/30 10:38:13;;;;;;;10.25;2.53;;;;;;;-146.27;81.96;32956.06;5068469;28;20028;-73
2023/12/30 10:40:40;;;;;;;12.27;1.88;;;;;;;-146.27;81.99;32966.00;5072941;28;20028;-73
2023/12/30 10:43:06;;;;;;;11.95;2.13;;;;;;;-146.27;82.48;33023.53;5067476;28;20021;-73
2023/12/30 10:45:32;;;;;;;15.82;3.72;;;;;;;-146.27;81.56;32882.66;5070923;28;20082;-72
2023/12/30 10:47:59;;;;;;;15.95;2.70;;;;;;;-146.27;80.58;32811.25;5070615;28;20032;-72
2023/12/30 10:50:26;;;;;;;17.35;2.05;;;;;;;-146.27;81.00;32817.19;5082636;28;20020;-71
2023/12/30 10:53:05;;;;;;;23.50;2.28;;;;;;;-146.27;81.72;32858.88;5078174;28;20021;-72
2023/12/30 10:55:33;;;;;;;12.63;3.10;;;;;;;-146.27;81.56;32773.56;5063387;28;20028;-72
2023/12/30 10:58:03;;;;;;;15.25;3.10;;;;;;;-146.27;81.28;32831.09;5064731;28;20392;-72
2023/12/30 11:00:35;;;;;;;17.58;2.30;;;;;;;-146.27;80.78;32704.13;5062356;28;20606;-72
2023/12/30 11:03:02;;;;;;;12.45;2.30;;;;;;;-146.27;81.30;32731.91;5066090;28;20028;-72
2023/12/30 11:05:36;;;;;;;17.92;2.13;;;;;;;-146.27;81.40;32733.88;5064569;28;20024;-71